sensor_id;sensor_type;location;lat;lon;timestamp;P1;durP1;ratioP1;P2;durP2;ratioP2
325;SDS011;150;52.352;14.058;2023-05-09T00:01:09;6.20;;;3.75;;
325;SDS011;150;52.352;14.058;2023-05-09T00:03:37;5.32;;;3.83;;
325;SDS011;150;52.352;14.058;2023-05-09T00:06:07;6.03;;;3.13;;
325;SDS011;150;52.352;14.058;2023-05-09T00:08:39;4.97;;;3.40;;
325;SDS011;150;52.352;14.058;2023-05-09T00:11:07;7.10;;;4.00;;
325;SDS011;150;52.352;14.058;2023-05-09T00:13:40;4.53;;;3.00;;
325;SDS011;150;52.352;14.058;2023-05-09T00:16:08;4.07;;;3.38;;
325;SDS011;150;52.352;14.058;2023-05-09T00:18:35;6.17;;;3.93;;
325;SDS011;150;52.352;14.058;2023-05-09T00:21:05;5.47;;;3.80;;
325;SDS011;150;52.352;14.058;2023-05-09T00:23:46;7.10;;;4.30;;
325;SDS011;150;52.352;14.058;2023-05-09T00:26:33;5.70;;;4.25;;
325;SDS011;150;52.352;14.058;2023-05-09T00:29:11;5.93;;;4.05;;
325;SDS011;150;52.352;14.058;2023-05-09T00:31:44;5.22;;;4.00;;
325;SDS011;150;52.352;14.058;2023-05-09T00:34:13;5.60;;;4.20;;
325;SDS011;150;52.352;14.058;2023-05-09T00:36:47;5.68;;;3.75;;
325;SDS011;150;52.352;14.058;2023-05-09T00:39:14;4.90;;;2.95;;
325;SDS011;150;52.352;14.058;2023-05-09T00:41:41;5.63;;;3.70;;
325;SDS011;150;52.352;14.058;2023-05-09T00:44:12;3.97;;;2.90;;
325;SDS011;150;52.352;14.058;2023-05-09T00:46:42;4.40;;;3.42;;
325;SDS011;150;52.352;14.058;2023-05-09T00:49:09;6.18;;;3.50;;
325;SDS011;150;52.352;14.058;2023-05-09T00:51:37;4.33;;;3.23;;
325;SDS011;150;52.352;14.058;2023-05-09T00:54:05;4.30;;;3.15;;
325;SDS011;150;52.352;14.058;2023-05-09T00:56:32;6.10;;;3.10;;
325;SDS011;150;52.352;14.058;2023-05-09T00:58:59;5.03;;;3.25;;
325;SDS011;150;52.352;14.058;2023-05-09T01:01:29;6.47;;;3.60;;
325;SDS011;150;52.352;14.058;2023-05-09T01:03:56;4.32;;;3.15;;
325;SDS011;150;52.352;14.058;2023-05-09T01:06:24;3.95;;;3.15;;
325;SDS011;150;52.352;14.058;2023-05-09T01:09:02;4.72;;;3.15;;
325;SDS011;150;52.352;14.058;2023-05-09T01:11:40;6.43;;;3.20;;
325;SDS011;150;52.352;14.058;2023-05-09T01:14:20;4.78;;;3.70;;
325;SDS011;150;52.352;14.058;2023-05-09T01:17:00;3.60;;;2.97;;
325;SDS011;150;52.352;14.058;2023-05-09T01:19:37;3.50;;;2.72;;
325;SDS011;150;52.352;14.058;2023-05-09T01:22:24;4.25;;;2.67;;
325;SDS011;150;52.352;14.058;2023-05-09T01:25:09;4.82;;;3.28;;
325;SDS011;150;52.352;14.058;2023-05-09T01:28:06;5.20;;;3.03;;
325;SDS011;150;52.352;14.058;2023-05-09T01:30:39;5.40;;;3.60;;
325;SDS011;150;52.352;14.058;2023-05-09T01:33:13;6.00;;;3.63;;
325;SDS011;150;52.352;14.058;2023-05-09T01:36:17;5.50;;;3.70;;
325;SDS011;150;52.352;14.058;2023-05-09T01:38:53;4.15;;;3.20;;
325;SDS011;150;52.352;14.058;2023-05-09T01:41:25;6.50;;;4.10;;
325;SDS011;150;52.352;14.058;2023-05-09T01:44:23;5.00;;;3.75;;
325;SDS011;150;52.352;14.058;2023-05-09T01:47:09;6.50;;;3.60;;
325;SDS011;150;52.352;14.058;2023-05-09T01:49:50;3.92;;;3.33;;
325;SDS011;150;52.352;14.058;2023-05-09T01:52:30;9.60;;;3.88;;
325;SDS011;150;52.352;14.058;2023-05-09T01:55:04;4.80;;;3.10;;
325;SDS011;150;52.352;14.058;2023-05-09T01:57:46;5.18;;;3.40;;
325;SDS011;150;52.352;14.058;2023-05-09T02:00:22;4.88;;;3.40;;
325;SDS011;150;52.352;14.058;2023-05-09T02:02:57;5.18;;;3.72;;
325;SDS011;150;52.352;14.058;2023-05-09T02:05:24;4.15;;;3.25;;
325;SDS011;150;52.352;14.058;2023-05-09T02:07:53;5.95;;;4.40;;
325;SDS011;150;52.352;14.058;2023-05-09T02:10:24;5.60;;;3.80;;
325;SDS011;150;52.352;14.058;2023-05-09T02:12:57;5.70;;;4.00;;
325;SDS011;150;52.352;14.058;2023-05-09T02:15:35;5.53;;;3.47;;
325;SDS011;150;52.352;14.058;2023-05-09T02:18:03;5.30;;;3.50;;
325;SDS011;150;52.352;14.058;2023-05-09T02:20:30;5.15;;;3.58;;
325;SDS011;150;52.352;14.058;2023-05-09T02:22:59;6.32;;;3.35;;
325;SDS011;150;52.352;14.058;2023-05-09T02:25:26;5.30;;;3.40;;
325;SDS011;150;52.352;14.058;2023-05-09T02:27:56;7.30;;;3.58;;
325;SDS011;150;52.352;14.058;2023-05-09T02:30:28;4.85;;;2.90;;
325;SDS011;150;52.352;14.058;2023-05-09T02:33:15;4.50;;;3.20;;
325;SDS011;150;52.352;14.058;2023-05-09T02:36:14;4.65;;;3.45;;
325;SDS011;150;52.352;14.058;2023-05-09T02:38:42;4.65;;;2.63;;
325;SDS011;150;52.352;14.058;2023-05-09T02:41:14;3.78;;;3.00;;
325;SDS011;150;52.352;14.058;2023-05-09T02:43:51;3.63;;;3.00;;
325;SDS011;150;52.352;14.058;2023-05-09T02:46:44;5.22;;;3.40;;
325;SDS011;150;52.352;14.058;2023-05-09T02:49:17;4.70;;;3.50;;
325;SDS011;150;52.352;14.058;2023-05-09T02:52:01;8.55;;;3.90;;
325;SDS011;150;52.352;14.058;2023-05-09T02:54:31;3.78;;;3.33;;
325;SDS011;150;52.352;14.058;2023-05-09T02:57:05;6.85;;;3.47;;
325;SDS011;150;52.352;14.058;2023-05-09T02:59:35;5.32;;;3.50;;
325;SDS011;150;52.352;14.058;2023-05-09T03:02:01;4.80;;;3.70;;
325;SDS011;150;52.352;14.058;2023-05-09T03:04:30;4.25;;;3.80;;
325;SDS011;150;52.352;14.058;2023-05-09T03:07:04;5.70;;;4.20;;
325;SDS011;150;52.352;14.058;2023-05-09T03:09:54;5.90;;;3.73;;
325;SDS011;150;52.352;14.058;2023-05-09T03:12:45;5.67;;;4.13;;
325;SDS011;150;52.352;14.058;2023-05-09T03:18:14;6.97;;;4.87;;
325;SDS011;150;52.352;14.058;2023-05-09T03:21:06;8.07;;;4.07;;
325;SDS011;150;52.352;14.058;2023-05-09T03:23:43;8.90;;;5.30;;
325;SDS011;150;52.352;14.058;2023-05-09T03:30:02;6.47;;;3.93;;
325;SDS011;150;52.352;14.058;2023-05-09T03:39:47;5.67;;;4.10;;
325;SDS011;150;52.352;14.058;2023-05-09T03:42:34;6.93;;;4.20;;
325;SDS011;150;52.352;14.058;2023-05-09T03:46:06;5.57;;;4.00;;
325;SDS011;150;52.352;14.058;2023-05-09T03:49:10;5.40;;;3.90;;
325;SDS011;150;52.352;14.058;2023-05-09T03:55:33;6.22;;;3.80;;
325;SDS011;150;52.352;14.058;2023-05-09T03:58:30;4.97;;;3.60;;
325;SDS011;150;52.352;14.058;2023-05-09T04:00:57;4.70;;;4.13;;
325;SDS011;150;52.352;14.058;2023-05-09T04:03:25;4.82;;;4.03;;
325;SDS011;150;52.352;14.058;2023-05-09T04:05:52;4.47;;;4.10;;
325;SDS011;150;52.352;14.058;2023-05-09T04:11:34;6.65;;;4.50;;
325;SDS011;150;52.352;14.058;2023-05-09T04:14:30;5.00;;;4.22;;
325;SDS011;150;52.352;14.058;2023-05-09T04:17:27;7.20;;;4.60;;
325;SDS011;150;52.352;14.058;2023-05-09T04:20:05;8.37;;;6.67;;
325;SDS011;150;52.352;14.058;2023-05-09T04:22:49;7.47;;;4.20;;
325;SDS011;150;52.352;14.058;2023-05-09T04:25:30;6.18;;;4.25;;
325;SDS011;150;52.352;14.058;2023-05-09T04:28:03;7.80;;;3.90;;
325;SDS011;150;52.352;14.058;2023-05-09T04:30:35;4.43;;;4.18;;
325;SDS011;150;52.352;14.058;2023-05-09T04:33:03;5.68;;;4.57;;
325;SDS011;150;52.352;14.058;2023-05-09T04:35:30;5.07;;;3.65;;
325;SDS011;150;52.352;14.058;2023-05-09T04:38:02;5.10;;;3.70;;
325;SDS011;150;52.352;14.058;2023-05-09T04:43:25;7.07;;;4.00;;
325;SDS011;150;52.352;14.058;2023-05-09T04:45:57;7.05;;;4.35;;
325;SDS011;150;52.352;14.058;2023-05-09T04:48:29;4.63;;;3.60;;
325;SDS011;150;52.352;14.058;2023-05-09T04:50:59;5.60;;;4.10;;
325;SDS011;150;52.352;14.058;2023-05-09T04:53:26;5.10;;;3.60;;
325;SDS011;150;52.352;14.058;2023-05-09T04:55:53;5.25;;;3.70;;
325;SDS011;150;52.352;14.058;2023-05-09T04:58:21;5.07;;;3.50;;
325;SDS011;150;52.352;14.058;2023-05-09T05:00:54;5.10;;;3.80;;
325;SDS011;150;52.352;14.058;2023-05-09T05:03:24;6.28;;;3.88;;
325;SDS011;150;52.352;14.058;2023-05-09T05:05:52;4.35;;;3.30;;
325;SDS011;150;52.352;14.058;2023-05-09T05:08:23;4.50;;;3.28;;
325;SDS011;150;52.352;14.058;2023-05-09T05:10:52;5.78;;;3.10;;
325;SDS011;150;52.352;14.058;2023-05-09T05:13:19;5.50;;;3.50;;
325;SDS011;150;52.352;14.058;2023-05-09T05:15:49;4.03;;;2.70;;
325;SDS011;150;52.352;14.058;2023-05-09T05:18:16;6.00;;;2.80;;
325;SDS011;150;52.352;14.058;2023-05-09T05:20:43;4.75;;;3.30;;
325;SDS011;150;52.352;14.058;2023-05-09T05:23:10;4.53;;;3.10;;
325;SDS011;150;52.352;14.058;2023-05-09T05:25:39;6.28;;;3.90;;
325;SDS011;150;52.352;14.058;2023-05-09T05:28:06;4.03;;;3.22;;
325;SDS011;150;52.352;14.058;2023-05-09T05:30:39;3.03;;;2.70;;
325;SDS011;150;52.352;14.058;2023-05-09T05:33:13;5.22;;;3.42;;
325;SDS011;150;52.352;14.058;2023-05-09T05:35:45;6.35;;;3.30;;
325;SDS011;150;52.352;14.058;2023-05-09T05:38:18;5.10;;;3.13;;
325;SDS011;150;52.352;14.058;2023-05-09T05:40:47;4.50;;;3.00;;
325;SDS011;150;52.352;14.058;2023-05-09T05:43:14;4.03;;;3.00;;
325;SDS011;150;52.352;14.058;2023-05-09T05:46:00;4.85;;;2.80;;
325;SDS011;150;52.352;14.058;2023-05-09T05:48:38;5.00;;;3.40;;
325;SDS011;150;52.352;14.058;2023-05-09T05:51:14;4.37;;;2.93;;
325;SDS011;150;52.352;14.058;2023-05-09T05:53:47;4.85;;;3.40;;
325;SDS011;150;52.352;14.058;2023-05-09T05:56:19;3.95;;;2.70;;
325;SDS011;150;52.352;14.058;2023-05-09T05:58:49;5.45;;;3.10;;
325;SDS011;150;52.352;14.058;2023-05-09T06:01:25;3.90;;;2.63;;
325;SDS011;150;52.352;14.058;2023-05-09T06:04:01;3.50;;;2.50;;
325;SDS011;150;52.352;14.058;2023-05-09T06:06:27;4.00;;;2.90;;
325;SDS011;150;52.352;14.058;2023-05-09T06:08:55;3.13;;;2.65;;
325;SDS011;150;52.352;14.058;2023-05-09T06:11:23;3.77;;;2.80;;
325;SDS011;150;52.352;14.058;2023-05-09T06:13:50;5.00;;;2.65;;
325;SDS011;150;52.352;14.058;2023-05-09T06:16:17;4.47;;;2.50;;
325;SDS011;150;52.352;14.058;2023-05-09T06:18:46;6.72;;;3.38;;
325;SDS011;150;52.352;14.058;2023-05-09T06:21:39;2.57;;;2.30;;
325;SDS011;150;52.352;14.058;2023-05-09T06:24:06;3.80;;;2.77;;
325;SDS011;150;52.352;14.058;2023-05-09T06:26:33;4.20;;;2.80;;
325;SDS011;150;52.352;14.058;2023-05-09T06:29:00;4.07;;;2.85;;
325;SDS011;150;52.352;14.058;2023-05-09T06:31:27;3.15;;;2.40;;
325;SDS011;150;52.352;14.058;2023-05-09T06:33:59;3.50;;;2.50;;
325;SDS011;150;52.352;14.058;2023-05-09T06:36:26;10.02;;;3.20;;
325;SDS011;150;52.352;14.058;2023-05-09T06:38:54;2.90;;;2.30;;
325;SDS011;150;52.352;14.058;2023-05-09T06:41:21;4.63;;;3.17;;
325;SDS011;150;52.352;14.058;2023-05-09T06:43:47;4.70;;;2.60;;
325;SDS011;150;52.352;14.058;2023-05-09T06:46:14;3.40;;;2.60;;
325;SDS011;150;52.352;14.058;2023-05-09T06:48:41;5.38;;;2.78;;
325;SDS011;150;52.352;14.058;2023-05-09T06:51:08;2.53;;;2.40;;
325;SDS011;150;52.352;14.058;2023-05-09T06:53:38;5.65;;;3.00;;
325;SDS011;150;52.352;14.058;2023-05-09T06:56:06;5.28;;;2.78;;
325;SDS011;150;52.352;14.058;2023-05-09T06:58:35;4.70;;;2.40;;
325;SDS011;150;52.352;14.058;2023-05-09T07:01:03;4.07;;;2.90;;
325;SDS011;150;52.352;14.058;2023-05-09T07:03:30;4.40;;;2.83;;
325;SDS011;150;52.352;14.058;2023-05-09T07:05:57;3.65;;;2.20;;
325;SDS011;150;52.352;14.058;2023-05-09T07:08:24;3.60;;;2.72;;
325;SDS011;150;52.352;14.058;2023-05-09T07:10:53;4.82;;;2.78;;
325;SDS011;150;52.352;14.058;2023-05-09T07:13:22;5.00;;;3.47;;
325;SDS011;150;52.352;14.058;2023-05-09T07:15:50;5.30;;;2.63;;
325;SDS011;150;52.352;14.058;2023-05-09T07:18:17;6.80;;;3.00;;
325;SDS011;150;52.352;14.058;2023-05-09T07:20:44;3.03;;;2.20;;
325;SDS011;150;52.352;14.058;2023-05-09T07:23:12;3.53;;;2.40;;
325;SDS011;150;52.352;14.058;2023-05-09T07:25:38;2.95;;;2.03;;
325;SDS011;150;52.352;14.058;2023-05-09T07:28:05;3.53;;;2.65;;
325;SDS011;150;52.352;14.058;2023-05-09T07:33:19;4.85;;;2.58;;
325;SDS011;150;52.352;14.058;2023-05-09T07:35:48;3.28;;;2.40;;
325;SDS011;150;52.352;14.058;2023-05-09T07:38:19;5.20;;;2.47;;
325;SDS011;150;52.352;14.058;2023-05-09T07:40:46;3.00;;;2.20;;
325;SDS011;150;52.352;14.058;2023-05-09T07:43:19;3.00;;;2.30;;
325;SDS011;150;52.352;14.058;2023-05-09T07:45:46;3.25;;;2.20;;
325;SDS011;150;52.352;14.058;2023-05-09T07:48:21;2.77;;;2.00;;
325;SDS011;150;52.352;14.058;2023-05-09T07:50:53;2.90;;;2.40;;
325;SDS011;150;52.352;14.058;2023-05-09T07:53:34;3.00;;;2.10;;
325;SDS011;150;52.352;14.058;2023-05-09T07:56:13;13.07;;;2.88;;
325;SDS011;150;52.352;14.058;2023-05-09T07:58:57;3.15;;;1.92;;
325;SDS011;150;52.352;14.058;2023-05-09T08:01:40;4.03;;;2.58;;
325;SDS011;150;52.352;14.058;2023-05-09T08:04:11;5.55;;;2.95;;
325;SDS011;150;52.352;14.058;2023-05-09T08:06:47;3.55;;;2.38;;
325;SDS011;150;52.352;14.058;2023-05-09T08:09:14;4.18;;;2.60;;
325;SDS011;150;52.352;14.058;2023-05-09T08:11:42;6.93;;;3.15;;
325;SDS011;150;52.352;14.058;2023-05-09T08:14:11;3.97;;;2.47;;
325;SDS011;150;52.352;14.058;2023-05-09T08:16:45;5.78;;;2.72;;
325;SDS011;150;52.352;14.058;2023-05-09T08:19:18;2.47;;;1.90;;
325;SDS011;150;52.352;14.058;2023-05-09T08:21:50;6.10;;;1.95;;
325;SDS011;150;52.352;14.058;2023-05-09T08:24:17;9.27;;;2.70;;
325;SDS011;150;52.352;14.058;2023-05-09T08:26:52;3.70;;;2.00;;
325;SDS011;150;52.352;14.058;2023-05-09T08:29:19;3.55;;;2.10;;
325;SDS011;150;52.352;14.058;2023-05-09T08:31:53;3.45;;;2.28;;
325;SDS011;150;52.352;14.058;2023-05-09T08:34:22;3.30;;;2.30;;
325;SDS011;150;52.352;14.058;2023-05-09T08:36:49;7.82;;;2.30;;
325;SDS011;150;52.352;14.058;2023-05-09T08:39:18;3.83;;;2.00;;
325;SDS011;150;52.352;14.058;2023-05-09T08:41:45;3.50;;;2.00;;
325;SDS011;150;52.352;14.058;2023-05-09T08:44:12;4.20;;;1.90;;
325;SDS011;150;52.352;14.058;2023-05-09T08:46:42;3.72;;;2.13;;
325;SDS011;150;52.352;14.058;2023-05-09T08:49:13;2.83;;;1.70;;
325;SDS011;150;52.352;14.058;2023-05-09T08:51:44;4.93;;;1.93;;
325;SDS011;150;52.352;14.058;2023-05-09T08:54:16;3.03;;;2.30;;
325;SDS011;150;52.352;14.058;2023-05-09T08:56:43;5.18;;;2.40;;
325;SDS011;150;52.352;14.058;2023-05-09T08:59:15;2.53;;;2.00;;
325;SDS011;150;52.352;14.058;2023-05-09T09:01:49;4.32;;;1.90;;
325;SDS011;150;52.352;14.058;2023-05-09T09:04:18;3.17;;;2.08;;
325;SDS011;150;52.352;14.058;2023-05-09T09:06:45;3.67;;;2.38;;
325;SDS011;150;52.352;14.058;2023-05-09T09:09:15;6.00;;;2.50;;
325;SDS011;150;52.352;14.058;2023-05-09T09:11:44;2.90;;;2.03;;
325;SDS011;150;52.352;14.058;2023-05-09T09:14:12;2.65;;;2.10;;
325;SDS011;150;52.352;14.058;2023-05-09T09:16:42;4.55;;;2.40;;
325;SDS011;150;52.352;14.058;2023-05-09T09:19:11;6.55;;;2.60;;
325;SDS011;150;52.352;14.058;2023-05-09T09:21:46;5.68;;;2.50;;
325;SDS011;150;52.352;14.058;2023-05-09T09:24:16;4.00;;;2.10;;
325;SDS011;150;52.352;14.058;2023-05-09T09:26:47;4.70;;;3.10;;
325;SDS011;150;52.352;14.058;2023-05-09T09:29:15;5.10;;;2.30;;
325;SDS011;150;52.352;14.058;2023-05-09T09:31:47;2.90;;;2.05;;
325;SDS011;150;52.352;14.058;2023-05-09T09:34:19;3.63;;;2.33;;
325;SDS011;150;52.352;14.058;2023-05-09T09:36:48;3.33;;;2.20;;
325;SDS011;150;52.352;14.058;2023-05-09T09:39:18;3.58;;;2.40;;
325;SDS011;150;52.352;14.058;2023-05-09T09:41:46;4.68;;;2.17;;
325;SDS011;150;52.352;14.058;2023-05-09T09:44:16;4.40;;;2.20;;
325;SDS011;150;52.352;14.058;2023-05-09T09:46:51;3.10;;;2.25;;
325;SDS011;150;52.352;14.058;2023-05-09T09:49:21;5.70;;;2.97;;
325;SDS011;150;52.352;14.058;2023-05-09T09:51:54;3.63;;;1.90;;
325;SDS011;150;52.352;14.058;2023-05-09T09:54:29;4.03;;;2.50;;
325;SDS011;150;52.352;14.058;2023-05-09T09:57:34;6.50;;;2.60;;
325;SDS011;150;52.352;14.058;2023-05-09T10:00:08;3.00;;;2.20;;
325;SDS011;150;52.352;14.058;2023-05-09T10:02:48;2.67;;;2.20;;
325;SDS011;150;52.352;14.058;2023-05-09T10:05:21;3.10;;;2.00;;
325;SDS011;150;52.352;14.058;2023-05-09T10:07:55;3.72;;;2.83;;
325;SDS011;150;52.352;14.058;2023-05-09T10:10:25;4.57;;;2.40;;
325;SDS011;150;52.352;14.058;2023-05-09T10:12:56;3.53;;;2.40;;
325;SDS011;150;52.352;14.058;2023-05-09T10:15:27;5.10;;;2.30;;
325;SDS011;150;52.352;14.058;2023-05-09T10:17:58;3.80;;;2.30;;
325;SDS011;150;52.352;14.058;2023-05-09T10:20:34;3.25;;;2.03;;
325;SDS011;150;52.352;14.058;2023-05-09T10:26:17;4.20;;;2.10;;
325;SDS011;150;52.352;14.058;2023-05-09T10:29:13;3.27;;;2.30;;
325;SDS011;150;52.352;14.058;2023-05-09T10:32:07;2.90;;;2.10;;
325;SDS011;150;52.352;14.058;2023-05-09T10:34:56;5.00;;;2.05;;
325;SDS011;150;52.352;14.058;2023-05-09T10:37:29;7.13;;;2.67;;
325;SDS011;150;52.352;14.058;2023-05-09T10:40:21;7.70;;;2.33;;
325;SDS011;150;52.352;14.058;2023-05-09T10:43:02;5.65;;;2.22;;
325;SDS011;150;52.352;14.058;2023-05-09T10:45:32;3.03;;;2.40;;
325;SDS011;150;52.352;14.058;2023-05-09T10:48:00;3.42;;;2.35;;
325;SDS011;150;52.352;14.058;2023-05-09T10:50:32;6.95;;;2.63;;
325;SDS011;150;52.352;14.058;2023-05-09T10:53:04;2.95;;;1.80;;
325;SDS011;150;52.352;14.058;2023-05-09T10:55:53;4.90;;;2.30;;
325;SDS011;150;52.352;14.058;2023-05-09T10:58:26;3.10;;;2.00;;
325;SDS011;150;52.352;14.058;2023-05-09T11:00:59;2.40;;;1.73;;
325;SDS011;150;52.352;14.058;2023-05-09T11:06:39;3.90;;;2.17;;
325;SDS011;150;52.352;14.058;2023-05-09T11:09:21;3.53;;;2.28;;
325;SDS011;150;52.352;14.058;2023-05-09T11:11:58;3.30;;;1.90;;
325;SDS011;150;52.352;14.058;2023-05-09T11:14:48;3.22;;;2.30;;
325;SDS011;150;52.352;14.058;2023-05-09T11:20:51;3.95;;;2.28;;
325;SDS011;150;52.352;14.058;2023-05-09T11:24:02;3.40;;;1.90;;
325;SDS011;150;52.352;14.058;2023-05-09T11:26:58;3.35;;;1.65;;
325;SDS011;150;52.352;14.058;2023-05-09T11:29:52;3.90;;;2.65;;
325;SDS011;150;52.352;14.058;2023-05-09T11:33:05;5.80;;;2.00;;
325;SDS011;150;52.352;14.058;2023-05-09T11:42:26;5.77;;;2.40;;
325;SDS011;150;52.352;14.058;2023-05-09T11:45:07;3.33;;;1.88;;
325;SDS011;150;52.352;14.058;2023-05-09T11:47:44;2.70;;;1.95;;
325;SDS011;150;52.352;14.058;2023-05-09T11:50:21;3.45;;;2.05;;
325;SDS011;150;52.352;14.058;2023-05-09T11:52:50;3.53;;;2.47;;
325;SDS011;150;52.352;14.058;2023-05-09T11:55:25;3.30;;;2.10;;
325;SDS011;150;52.352;14.058;2023-05-09T11:58:12;3.90;;;2.28;;
325;SDS011;150;52.352;14.058;2023-05-09T12:01:27;5.05;;;2.33;;
325;SDS011;150;52.352;14.058;2023-05-09T12:04:16;4.20;;;2.13;;
325;SDS011;150;52.352;14.058;2023-05-09T12:07:17;2.97;;;2.20;;
325;SDS011;150;52.352;14.058;2023-05-09T12:10:16;3.00;;;1.95;;
325;SDS011;150;52.352;14.058;2023-05-09T12:13:04;2.58;;;1.90;;
325;SDS011;150;52.352;14.058;2023-05-09T12:16:00;4.90;;;2.60;;
325;SDS011;150;52.352;14.058;2023-05-09T12:18:52;3.85;;;2.28;;
325;SDS011;150;52.352;14.058;2023-05-09T12:21:33;2.85;;;2.13;;
325;SDS011;150;52.352;14.058;2023-05-09T12:24:20;2.90;;;2.00;;
325;SDS011;150;52.352;14.058;2023-05-09T12:26:58;4.33;;;2.30;;
325;SDS011;150;52.352;14.058;2023-05-09T12:32:49;2.70;;;2.10;;
325;SDS011;150;52.352;14.058;2023-05-09T12:35:43;2.70;;;2.00;;
325;SDS011;150;52.352;14.058;2023-05-09T12:38:21;5.43;;;2.23;;
325;SDS011;150;52.352;14.058;2023-05-09T12:41:17;6.97;;;2.70;;
325;SDS011;150;52.352;14.058;2023-05-09T12:44:02;2.90;;;1.95;;
325;SDS011;150;52.352;14.058;2023-05-09T12:47:00;5.07;;;1.85;;
325;SDS011;150;52.352;14.058;2023-05-09T12:50:05;6.60;;;1.73;;
325;SDS011;150;52.352;14.058;2023-05-09T12:55:59;5.05;;;2.53;;
325;SDS011;150;52.352;14.058;2023-05-09T12:58:51;6.30;;;2.22;;
325;SDS011;150;52.352;14.058;2023-05-09T13:01:27;3.20;;;2.00;;
325;SDS011;150;52.352;14.058;2023-05-09T13:04:44;6.10;;;2.15;;
325;SDS011;150;52.352;14.058;2023-05-09T13:07:50;2.78;;;1.90;;
325;SDS011;150;52.352;14.058;2023-05-09T13:10:46;3.73;;;2.17;;
325;SDS011;150;52.352;14.058;2023-05-09T13:14:01;4.13;;;2.10;;
325;SDS011;150;52.352;14.058;2023-05-09T13:16:53;2.90;;;1.90;;
325;SDS011;150;52.352;14.058;2023-05-09T13:19:31;2.92;;;2.20;;
325;SDS011;150;52.352;14.058;2023-05-09T13:22:03;3.55;;;2.20;;
325;SDS011;150;52.352;14.058;2023-05-09T13:24:37;4.60;;;2.30;;
325;SDS011;150;52.352;14.058;2023-05-09T13:27:32;3.60;;;1.70;;
325;SDS011;150;52.352;14.058;2023-05-09T13:30:45;5.07;;;2.20;;
325;SDS011;150;52.352;14.058;2023-05-09T13:33:39;3.65;;;2.35;;
325;SDS011;150;52.352;14.058;2023-05-09T13:36:36;7.55;;;2.03;;
325;SDS011;150;52.352;14.058;2023-05-09T13:39:11;3.45;;;1.90;;
325;SDS011;150;52.352;14.058;2023-05-09T13:42:15;3.70;;;2.20;;
325;SDS011;150;52.352;14.058;2023-05-09T13:45:07;3.30;;;2.37;;
325;SDS011;150;52.352;14.058;2023-05-09T13:47:54;3.40;;;2.83;;
325;SDS011;150;52.352;14.058;2023-05-09T13:54:09;4.72;;;2.30;;
325;SDS011;150;52.352;14.058;2023-05-09T13:57:19;4.78;;;1.90;;
325;SDS011;150;52.352;14.058;2023-05-09T14:00:26;8.00;;;2.15;;
325;SDS011;150;52.352;14.058;2023-05-09T14:03:02;5.50;;;2.10;;
325;SDS011;150;52.352;14.058;2023-05-09T14:05:42;4.07;;;2.13;;
325;SDS011;150;52.352;14.058;2023-05-09T14:08:18;7.65;;;2.55;;
325;SDS011;150;52.352;14.058;2023-05-09T14:10:46;3.88;;;1.70;;
325;SDS011;150;52.352;14.058;2023-05-09T14:13:16;5.20;;;2.50;;
325;SDS011;150;52.352;14.058;2023-05-09T14:15:50;3.30;;;1.90;;
325;SDS011;150;52.352;14.058;2023-05-09T14:18:21;3.30;;;1.90;;
325;SDS011;150;52.352;14.058;2023-05-09T14:20:54;3.60;;;1.90;;
325;SDS011;150;52.352;14.058;2023-05-09T14:23:20;2.90;;;1.90;;
325;SDS011;150;52.352;14.058;2023-05-09T14:25:50;1.90;;;1.40;;
325;SDS011;150;52.352;14.058;2023-05-09T14:28:21;5.43;;;1.90;;
325;SDS011;150;52.352;14.058;2023-05-09T14:30:58;4.57;;;1.65;;
325;SDS011;150;52.352;14.058;2023-05-09T14:33:25;6.80;;;2.80;;
325;SDS011;150;52.352;14.058;2023-05-09T14:36:01;4.35;;;2.80;;
325;SDS011;150;52.352;14.058;2023-05-09T14:40:04;2.42;;;1.80;;
325;SDS011;150;52.352;14.058;2023-05-09T16:00:00;4.03;;;1.60;;
325;SDS011;150;52.352;14.058;2023-05-09T16:25:22;3.55;;;2.38;;
325;SDS011;150;52.352;14.058;2023-05-09T16:31:27;2.80;;;1.90;;
325;SDS011;150;52.352;14.058;2023-05-09T16:34:09;2.85;;;1.90;;
325;SDS011;150;52.352;14.058;2023-05-09T17:12:53;4.60;;;2.33;;
325;SDS011;150;52.352;14.058;2023-05-09T17:15:53;3.42;;;2.50;;
325;SDS011;150;52.352;14.058;2023-05-09T17:21:52;5.47;;;2.75;;
325;SDS011;150;52.352;14.058;2023-05-09T17:28:33;4.30;;;2.20;;
325;SDS011;150;52.352;14.058;2023-05-09T17:35:24;2.80;;;2.00;;
325;SDS011;150;52.352;14.058;2023-05-09T17:37:56;3.40;;;1.90;;
325;SDS011;150;52.352;14.058;2023-05-09T17:44:20;4.03;;;2.43;;
325;SDS011;150;52.352;14.058;2023-05-09T17:50:48;4.20;;;3.03;;
325;SDS011;150;52.352;14.058;2023-05-09T17:53:19;5.28;;;2.13;;
325;SDS011;150;52.352;14.058;2023-05-09T17:55:50;2.85;;;2.20;;
325;SDS011;150;52.352;14.058;2023-05-09T18:01:24;3.50;;;2.20;;
325;SDS011;150;52.352;14.058;2023-05-09T18:04:05;5.40;;;2.00;;
325;SDS011;150;52.352;14.058;2023-05-09T18:06:34;3.35;;;1.70;;
325;SDS011;150;52.352;14.058;2023-05-09T18:09:13;4.22;;;1.73;;
325;SDS011;150;52.352;14.058;2023-05-09T18:11:44;2.80;;;1.90;;
325;SDS011;150;52.352;14.058;2023-05-09T18:14:12;3.20;;;1.87;;
325;SDS011;150;52.352;14.058;2023-05-09T18:16:41;3.87;;;2.10;;
325;SDS011;150;52.352;14.058;2023-05-09T18:19:12;3.73;;;2.37;;
325;SDS011;150;52.352;14.058;2023-05-09T18:21:42;5.65;;;3.00;;
325;SDS011;150;52.352;14.058;2023-05-09T18:24:08;5.05;;;2.03;;
325;SDS011;150;52.352;14.058;2023-05-09T18:26:35;4.40;;;1.70;;
325;SDS011;150;52.352;14.058;2023-05-09T18:29:03;5.10;;;3.55;;
325;SDS011;150;52.352;14.058;2023-05-09T18:31:31;8.50;;;4.90;;
325;SDS011;150;52.352;14.058;2023-05-09T18:34:02;4.95;;;2.50;;
325;SDS011;150;52.352;14.058;2023-05-09T18:36:31;3.10;;;2.20;;
325;SDS011;150;52.352;14.058;2023-05-09T18:39:02;3.67;;;2.05;;
325;SDS011;150;52.352;14.058;2023-05-09T18:41:31;4.70;;;1.75;;
325;SDS011;150;52.352;14.058;2023-05-09T18:43:58;3.45;;;1.90;;
325;SDS011;150;52.352;14.058;2023-05-09T18:46:24;2.60;;;1.80;;
325;SDS011;150;52.352;14.058;2023-05-09T18:48:56;3.00;;;2.30;;
325;SDS011;150;52.352;14.058;2023-05-09T18:51:26;5.23;;;2.23;;
325;SDS011;150;52.352;14.058;2023-05-09T18:54:00;2.88;;;2.15;;
325;SDS011;150;52.352;14.058;2023-05-09T18:56:27;3.60;;;1.90;;
325;SDS011;150;52.352;14.058;2023-05-09T18:58:53;3.60;;;1.80;;
325;SDS011;150;52.352;14.058;2023-05-09T19:01:20;4.00;;;1.95;;
325;SDS011;150;52.352;14.058;2023-05-09T19:03:48;2.47;;;1.95;;
325;SDS011;150;52.352;14.058;2023-05-09T19:06:23;3.50;;;2.53;;
325;SDS011;150;52.352;14.058;2023-05-09T19:08:59;3.23;;;2.20;;
325;SDS011;150;52.352;14.058;2023-05-09T19:11:56;3.92;;;1.92;;
325;SDS011;150;52.352;14.058;2023-05-09T19:14:31;2.92;;;1.85;;
325;SDS011;150;52.352;14.058;2023-05-09T19:16:58;2.78;;;1.65;;
325;SDS011;150;52.352;14.058;2023-05-09T19:19:30;5.20;;;2.30;;
325;SDS011;150;52.352;14.058;2023-05-09T19:21:58;4.60;;;2.10;;
325;SDS011;150;52.352;14.058;2023-05-09T19:24:25;4.25;;;1.90;;
325;SDS011;150;52.352;14.058;2023-05-09T19:26:52;5.43;;;1.92;;
325;SDS011;150;52.352;14.058;2023-05-09T19:29:26;2.55;;;1.70;;
325;SDS011;150;52.352;14.058;2023-05-09T19:31:53;4.82;;;2.00;;
325;SDS011;150;52.352;14.058;2023-05-09T19:34:23;3.38;;;2.22;;
325;SDS011;150;52.352;14.058;2023-05-09T19:36:50;5.50;;;2.13;;
325;SDS011;150;52.352;14.058;2023-05-09T19:39:19;3.85;;;2.35;;
325;SDS011;150;52.352;14.058;2023-05-09T19:44:54;4.30;;;2.25;;
325;SDS011;150;52.352;14.058;2023-05-09T19:47:22;3.73;;;2.40;;
325;SDS011;150;52.352;14.058;2023-05-09T19:49:53;3.65;;;1.92;;
325;SDS011;150;52.352;14.058;2023-05-09T19:52:21;3.70;;;2.40;;
325;SDS011;150;52.352;14.058;2023-05-09T19:57:51;3.20;;;1.98;;
325;SDS011;150;52.352;14.058;2023-05-09T20:00:22;5.05;;;2.70;;
325;SDS011;150;52.352;14.058;2023-05-09T20:02:54;3.10;;;2.20;;
325;SDS011;150;52.352;14.058;2023-05-09T20:05:21;9.30;;;5.40;;